Latest Weather Observations for Birdsville

IDQ60801

Issued at 11:35 pm EST Thursday 21 August 2014 (issued every 30 minutes, with the page automatically refreshed every 10 minutes)

About weather observations | Map of weather stations | Latest weather observations for QLD | Other Formats
Station Details ID: 038026 Name: BIRDSVILLE AIRPORT Lat: -25.90 Lon: 139.35 Height: 46.6 m
Data from the previous 72 hours. | See also: Recent months at Birdsville
Date/Time
EST
Temp
°C
App
Temp
°C
Dew
Point
Rel
Hum
%
Delta-T
°C
Wind Press
QNH
hPa
Press
MSL
hPa
Rain
since 9 am
mm
Dir
 
Spd
km/h
Gust
km/h
Spd
kts
Gust
kts
21/11:30pm 14.6 10.3 -1.9 32 6.6 SSE 11 13 6 7 1021.9 - 0.0
21/11:00pm 15.1 10.7 -2.3 30 7.0 SSE 11 13 6 7 1021.8 - 0.0
21/10:30pm 15.5 10.8 -2.0 30 7.1 SSE 13 17 7 9 1021.7 - 0.0
21/10:00pm 15.8 11.8 -2.2 29 7.3 SSE 9 11 5 6 1021.6 - 0.0
21/09:30pm 16.7 12.4 -1.9 28 7.7 S 11 13 6 7 1021.5 - 0.0
21/09:00pm 16.9 12.9 -2.2 27 7.8 S 9 11 5 6 1021.1 1021.1 0.0
21/08:30pm 17.1 13.1 -2.0 27 7.9 S 9 11 5 6 1020.8 - 0.0
21/08:00pm 17.4 13.0 -2.8 25 8.2 S 11 11 6 6 1020.6 - 0.0
21/07:30pm 18.7 14.3 -2.3 24 8.8 S 11 13 6 7 1020.2 - 0.0
21/07:00pm 20.4 16.1 -1.4 23 9.4 S 11 13 6 7 1019.6 - 0.0
21/06:30pm 21.7 18.3 -0.9 22 10.0 SSE 7 9 4 5 1019.3 - 0.0
21/06:00pm 22.7 18.5 -0.7 21 10.4 S 11 15 6 8 1019.0 1019.0 0.0
21/05:30pm 22.9 18.4 -0.6 21 10.5 SSE 13 19 7 10 1018.9 - 0.0
21/05:00pm 23.0 19.7 0.2 22 10.4 S 7 13 4 7 1018.7 - 0.0
21/04:30pm 22.8 19.2 0.6 23 10.2 SSE 9 15 5 8 1018.6 - 0.0
21/04:00pm 23.4 19.1 1.1 23 10.4 S 13 20 7 11 1018.4 - 0.0
21/03:30pm 23.3 19.3 0.4 22 10.5 E 11 17 6 9 1018.6 - 0.0
21/03:00pm 23.1 19.2 0.9 23 10.2 ESE 11 17 6 9 1018.8 1018.8 0.0
21/02:30pm 22.8 18.8 0.6 23 10.2 SE 11 17 6 9 1019.0 - 0.0
21/02:00pm 22.4 18.9 1.4 25 9.7 SE 9 19 5 10 1019.3 - 0.0
21/01:30pm 22.7 18.2 2.2 26 9.7 E 15 24 8 13 1019.7 - 0.0
21/01:00pm 22.3 19.5 1.9 26 9.5 SSE 6 19 3 10 1020.3 - 0.0
21/12:30pm 21.4 16.6 2.6 29 8.9 SE 17 24 9 13 1020.8 - 0.0
21/12:00pm 21.3 17.1 4.0 32 8.3 SSE 15 22 8 12 1021.3 1021.3 0.0
21/11:30am 20.8 16.3 4.4 34 8.0 SSE 17 24 9 13 1021.8 - 0.0
21/11:00am 20.1 15.3 4.6 36 7.5 SSE 19 22 10 12 1022.2 - 0.0
21/10:30am 18.4 13.8 3.5 37 7.0 SSE 17 20 9 11 1022.5 - 0.0
21/10:00am 16.8 12.0 2.8 39 6.4 SSE 17 20 9 11 1022.6 - 0.0
21/09:30am 15.2 9.9 1.7 40 5.9 SE 19 22 10 12 1022.4 - 0.0
21/09:00am 12.7 7.6 0.5 43 5.1 SE 17 20 9 11 1022.3 1022.3 0.0
21/08:30am 10.2 6.0 -0.9 46 4.4 S 11 17 6 9 1022.0 - 0.0
21/08:00am 8.3 3.9 -2.3 47 4.0 S 11 13 6 7 1021.7 - 0.0
21/07:30am 7.4 2.6 -2.3 50 3.6 S 13 15 7 8 1021.6 - 0.0
21/07:00am 7.2 2.8 -2.5 50 3.6 S 11 15 6 8 1021.3 - 0.0
21/06:30am 7.5 3.5 -2.0 51 3.5 S 9 11 5 6 1021.2 - 0.0
21/06:00am 7.5 3.1 -2.5 49 3.7 S 11 13 6 7 1020.8 1020.8 0.0
21/05:30am 7.7 3.2 -2.9 47 3.9 S 11 13 6 7 1020.7 - 0.0
21/05:00am 7.6 2.6 -3.9 44 4.1 S 13 13 7 7 1020.6 - 0.0
21/04:30am 7.7 3.5 -4.1 43 4.2 SSW 9 11 5 6 1020.7 - 0.0
21/04:00am 7.5 3.2 -4.9 41 4.3 SSW 9 9 5 5 1020.6 - 0.0
21/03:30am 8.0 3.3 -5.1 39 4.6 SSW 11 11 6 6 1020.7 - 0.0
21/03:00am 8.4 3.7 -5.4 37 4.8 SSW 11 15 6 8 1020.8 1020.8 0.0
21/02:30am 9.0 4.3 -5.2 36 5.0 SW 11 13 6 7 1021.0 - 0.0
21/02:00am 9.6 4.5 -5.5 34 5.3 SW 13 15 7 8 1021.2 - 0.0
21/01:30am 9.5 4.3 -5.9 33 5.4 SSW 13 15 7 8 1021.6 - 0.0
21/01:00am 10.0 4.8 -5.9 32 5.6 S 13 13 7 7 1021.7 - 0.0
21/12:30am 10.8 6.0 -5.6 31 5.8 S 11 11 6 6 1021.7 - 0.0
21/12:00am 11.3 7.0 -5.2 31 5.9 S 9 11 5 6 1021.8 1021.8 0.0
 
Date/Time
EST
Temp
°C
App
Temp
°C
Dew
Point
Rel
Hum
%
Delta-T
°C
Wind Press
QNH
hPa
Press
MSL
hPa
Rain
since 9 am
mm
Dir
 
Spd
km/h
Gust
km/h
Spd
kts
Gust
kts
20/11:30pm 11.3 6.9 -6.1 29 6.2 S 9 11 5 6 1021.8 - 0.0
20/11:00pm 12.4 7.7 -5.1 29 6.4 S 11 13 6 7 1021.9 - 0.0
20/10:30pm 12.3 8.0 -5.2 29 6.4 S 9 11 5 6 1021.9 - 0.0
20/10:00pm 13.1 8.4 -5.0 28 6.7 S 11 13 6 7 1021.9 - 0.0
20/09:30pm 13.3 8.6 -5.3 27 6.9 S 11 11 6 6 1021.8 - 0.0
20/09:00pm 13.4 8.6 -5.7 26 7.0 S 11 13 6 7 1021.6 1021.6 0.0
20/08:30pm 14.2 9.5 -5.5 25 7.3 S 11 11 6 6 1021.3 - 0.0
20/08:00pm 14.9 10.2 -5.5 24 7.6 S 11 11 6 6 1020.9 - 0.0
20/07:30pm 16.5 11.9 -4.1 24 8.1 S 11 13 6 7 1020.6 - 0.0
20/07:00pm 17.7 12.7 -4.3 22 8.7 S 13 13 7 7 1020.3 - 0.0
20/06:30pm 18.8 13.8 -4.0 21 9.2 S 13 17 7 9 1020.0 - 0.0
20/06:00pm 19.5 14.2 -3.4 21 9.4 SSE 15 20 8 11 1019.8 1019.8 0.0
20/05:30pm 20.0 15.1 -3.0 21 9.6 SSE 13 19 7 10 1019.5 - 0.0
20/05:00pm 20.1 15.2 -3.5 20 9.7 ESE 13 20 7 11 1019.3 - 0.0
20/04:30pm 20.2 15.7 -3.4 20 9.8 S 11 15 6 8 1019.3 - 0.0
20/04:00pm 20.4 16.2 -4.0 19 10.0 S 9 17 5 9 1019.3 - 0.0
20/03:30pm 20.0 15.5 -3.6 20 9.7 SSE 11 19 6 10 1019.3 - 0.0
20/03:00pm 20.1 16.0 -2.9 21 9.6 SSE 9 17 5 9 1019.5 1019.6 0.0
20/02:30pm 20.5 16.6 -1.3 23 9.4 SW 9 20 5 11 1020.0 - 0.0
20/02:00pm 19.3 14.7 -1.2 25 8.8 SSW 13 19 7 10 1020.6 - 0.0
20/01:30pm 19.1 15.6 -1.4 25 8.7 SSE 7 17 4 9 1021.0 - 0.0
20/01:00pm 19.2 15.3 -1.3 25 8.8 SSE 9 15 5 8 1021.6 - 0.0
20/12:30pm 18.3 14.5 -1.0 27 8.2 E 9 19 5 10 1022.1 - 0.0
20/12:00pm 18.5 15.1 -0.8 27 8.3 E 7 17 4 9 1022.7 1022.6 0.0
20/11:30am 17.9 14.0 1.0 32 7.5 ESE 11 17 6 9 1023.2 - 0.0
20/11:00am 15.7 12.0 -0.1 34 6.7 SE 9 15 5 8 1023.6 - 0.0
20/10:30am 14.5 11.3 0.7 39 5.9 SSE 7 11 4 6 1023.9 - 0.0
20/10:00am 12.9 9.3 0.6 43 5.2 SSE 9 11 5 6 1024.1 - 0.0
20/09:30am 10.8 6.7 -0.3 46 4.5 SSE 11 15 6 8 1023.9 - 0.0
20/09:00am 9.6 5.5 -0.3 50 3.9 SSE 11 15 6 8 1023.6 1023.6 0.0
20/08:30am 7.6 4.1 -1.1 54 3.3 S 7 11 4 6 1023.4 - 0.0
20/08:00am 5.9 1.9 -2.2 56 3.0 S 9 11 5 6 1023.2 - 0.0
20/07:30am 5.1 1.2 -1.8 61 2.5 S 9 11 5 6 1023.0 - 0.0
20/07:00am 5.5 1.6 -1.4 61 2.6 S 9 11 5 6 1022.7 - 0.0
20/06:30am 5.4 1.4 -2.2 58 2.8 S 9 9 5 5 1022.4 - 0.0
20/06:00am 5.6 1.6 -2.0 58 2.8 S 9 11 5 6 1022.1 1022.1 0.0
20/05:30am 6.0 2.4 -2.1 56 3.0 S 7 9 4 5 1022.1 - 0.0
20/05:00am 6.6 2.3 -1.8 55 3.1 S 11 13 6 7 1021.9 - 0.0
20/04:30am 6.7 2.7 -1.9 54 3.2 S 9 11 5 6 1021.9 - 0.0
20/04:00am 7.2 3.2 -2.2 51 3.5 S 9 13 5 7 1021.9 - 0.0
20/03:30am 8.5 3.9 -1.3 50 3.8 SSE 13 17 7 9 1022.0 - 0.0
20/03:00am 9.0 4.0 -1.4 48 4.0 SSE 15 17 8 9 1022.1 1022.1 0.0
20/02:30am 9.4 4.7 -1.6 46 4.2 SSE 13 19 7 10 1022.3 - 0.0
20/02:00am 9.7 4.6 -1.9 44 4.5 SSE 15 20 8 11 1022.4 - 0.0
20/01:30am 10.1 5.0 -1.9 43 4.6 SSE 15 19 8 10 1022.5 - 0.0
20/01:00am 10.4 5.3 -1.9 42 4.8 SSE 15 20 8 11 1022.4 - 0.0
20/12:30am 10.6 5.5 -1.8 42 4.8 SSE 15 19 8 10 1022.4 - 0.0
20/12:00am 10.7 6.0 -1.7 42 4.8 SSE 13 17 7 9 1022.4 1022.4 0.0
 
Date/Time
EST
Temp
°C
App
Temp
°C
Dew
Point
Rel
Hum
%
Delta-T
°C
Wind Press
QNH
hPa
Press
MSL
hPa
Rain
since 9 am
mm
Dir
 
Spd
km/h
Gust
km/h
Spd
kts
Gust
kts
19/11:30pm 11.2 6.4 -2.2 39 5.2 SSE 13 17 7 9 1022.4 - 0.0
19/11:00pm 11.9 6.8 -2.3 37 5.5 SSE 15 20 8 11 1022.3 - 0.0
19/10:30pm 12.1 6.9 -2.9 35 5.8 SSE 15 19 8 10 1022.5 - 0.0
19/10:00pm 12.8 7.2 -2.6 34 6.0 SSE 17 20 9 11 1022.5 - 0.0
19/09:30pm 13.5 8.4 -2.0 34 6.2 SSE 15 19 8 10 1022.6 - 0.0
19/09:00pm 14.3 9.6 -1.7 33 6.4 S 13 17 7 9 1022.4 1022.4 0.0
19/08:30pm 14.9 10.3 -1.2 33 6.6 S 13 15 7 8 1022.1 - 0.0
19/08:00pm 15.2 10.6 -1.4 32 6.8 S 13 15 7 8 1021.8 - 0.0
19/07:30pm 16.0 11.4 -1.1 31 7.1 S 13 15 7 8 1021.5 - 0.0
19/07:00pm 17.1 12.2 -0.6 30 7.5 SSE 15 19 8 10 1021.3 - 0.0
19/06:30pm 17.8 12.9 -0.5 29 7.9 S 15 20 8 11 1021.0 - 0.0
19/06:00pm 18.4 13.1 -0.4 28 8.1 SSE 17 20 9 11 1020.8 1020.8 0.0
19/05:30pm 19.0 14.2 0.1 28 8.3 S 15 22 8 12 1020.7 - 0.0
19/05:00pm 19.0 13.7 -0.4 27 8.4 SSE 17 22 9 12 1020.5 - 0.0
19/04:30pm 19.2 14.0 -0.2 27 8.5 SSE 17 26 9 14 1020.5 - 0.0
19/04:00pm 19.0 13.3 -0.9 26 8.6 SSE 19 26 10 14 1020.5 - 0.0
19/03:30pm 19.5 14.7 0.0 27 8.6 SSE 15 24 8 13 1020.7 - 0.0
19/03:00pm 19.1 13.9 0.2 28 8.3 S 17 22 9 12 1021.1 1021.0 0.0
19/02:30pm 19.1 14.4 0.7 29 8.2 SSE 15 22 8 12 1021.3 - 0.0
19/02:00pm 18.8 14.5 0.9 30 8.0 S 13 20 7 11 1021.8 - 0.0
19/01:30pm 18.7 14.1 1.7 32 7.7 SE 15 20 8 11 1022.2 - 0.0
19/01:00pm 17.6 12.6 1.2 33 7.3 SSE 17 22 9 12 1022.8 - 0.0
19/12:30pm 17.4 13.5 1.4 34 7.1 SE 11 26 6 14 1023.4 - 0.0
19/12:00pm 17.1 12.6 1.9 36 6.8 SE 15 30 8 16 1023.8 1023.8 0.0
19/11:30am 16.3 12.2 2.0 38 6.4 SE 13 20 7 11 1024.5 - 0.0
19/11:00am 16.1 11.6 2.2 39 6.2 ESE 15 22 8 12 1024.9 - 0.0
19/10:30am 15.7 11.7 2.8 42 5.8 ESE 13 20 7 11 1025.1 - 0.0
19/10:00am 13.6 9.5 2.5 47 4.9 ESE 13 17 7 9 1025.1 - 0.0
19/09:30am 11.8 8.0 1.7 50 4.3 SE 11 15 6 8 1025.2 - 0.0
19/09:00am 10.4 7.3 1.5 54 3.7 SSE 7 11 4 6 1025.0 1025.0 0.0
19/08:30am 7.7 5.7 0.0 58 3.0 CALM 0 0 0 0 1024.6 - 0.0
19/08:00am 6.4 4.3 -0.8 60 2.7 CALM 0 0 0 0 1024.2 - 0.0
19/07:30am 5.8 3.7 -0.5 64 2.4 CALM 0 0 0 0 1023.7 - 0.0
19/07:00am 6.3 2.9 -0.7 61 2.7 S 7 9 4 5 1023.3 - 0.0
19/06:30am 5.6 1.6 -2.0 58 2.8 S 9 11 5 6 1023.0 - 0.0
19/06:00am 6.6 2.5 -0.4 61 2.7 S 11 13 6 7 1022.5 1022.5 0.0
19/05:30am 6.0 1.3 -1.9 57 2.9 SSW 13 17 7 9 1022.2 - 0.0
19/05:00am 6.4 2.1 -1.7 56 3.0 SW 11 17 6 9 1022.1 - 0.0
19/04:30am 6.7 2.4 -1.9 54 3.2 S 11 19 6 10 1022.0 - 0.0
19/04:00am 7.6 3.8 -0.8 55 3.2 SSE 9 11 5 6 1021.9 - 0.0
19/03:30am 8.6 5.3 0.1 55 3.4 SSE 7 9 4 5 1022.0 - 0.0
19/03:00am 8.6 5.4 -0.2 54 3.5 SSE 6 7 3 4 1022.2 1022.2 0.0
19/02:30am 9.0 5.6 -0.6 51 3.8 SSE 7 11 4 6 1022.4 - 0.0
19/02:00am 9.5 5.3 -0.7 49 4.0 SSE 11 13 6 7 1022.4 - 0.0
19/01:30am 9.8 6.0 -0.7 48 4.1 SSE 9 11 5 6 1022.8 - 0.0
19/01:00am 10.8 6.3 -0.3 46 4.5 SSE 13 15 7 8 1022.7 - 0.0
19/12:30am 11.3 6.8 -0.2 45 4.7 SSE 13 17 7 9 1022.6 - 0.0
19/12:00am 11.7 7.3 0.2 45 4.7 SSE 13 15 7 8 1022.7 1022.7 0.0

Other Formats:

Comma delimited format used in spreadsheet applications
http://www.bom.gov.au/fwo/IDQ60801/IDQ60801.95482.axf

JavaScript Object Notation format (JSON) in row-major order
http://www.bom.gov.au/fwo/IDQ60801/IDQ60801.95482.json